Time,TemperatureF,DewpointF,PressureIn,WindDirection,WindDirectionDegrees,WindSpeedMPH,WindSpeedGustMPH,Humidity,HourlyPrecipIn,Conditions,Clouds,dailyrainin,SolarRadiationWatts/m^2,SoftwareType,DateUTC
2013-03-05 00:02:00,37.0,36.0,-100.00,NNW,334,1.0,2.0,96,-99.99,,,-99.99,0.000000,,2013-03-05 08:02:00,
2013-03-05 00:11:00,37.0,36.0,-100.00,NNW,334,1.0,2.0,96,-99.99,,,-99.99,0.000000,,2013-03-05 08:11:00,
2013-03-05 00:41:00,37.0,36.0,-100.00,WSW,257,2.0,3.0,97,-99.99,,,-99.99,0.120000,,2013-03-05 08:41:00,
2013-03-05 00:52:00,37.0,36.0,-100.00,WSW,257,2.0,3.0,97,-99.99,,,-99.99,0.120000,,2013-03-05 08:52:00,
2013-03-05 01:01:00,37.0,36.0,-100.00,WSW,257,2.0,3.0,97,-99.99,,,-99.99,0.120000,,2013-03-05 09:01:00,
2013-03-05 01:11:00,37.0,36.0,-100.00,WSW,257,2.0,3.0,97,-99.99,,,-99.99,0.120000,,2013-03-05 09:11:00,
2013-03-05 01:42:00,35.0,34.0,-100.00,NNE,29,2.0,3.0,96,-99.99,,,-99.99,0.230000,,2013-03-05 09:42:00,
2013-03-05 01:52:00,35.0,34.0,-100.00,NNE,29,2.0,3.0,96,-99.99,,,-99.99,0.230000,,2013-03-05 09:52:00,
2013-03-05 02:01:00,35.0,34.0,-100.00,NNE,29,2.0,3.0,96,-99.99,,,-99.99,0.230000,,2013-03-05 10:01:00,
2013-03-05 02:11:00,35.0,34.0,-100.00,NNE,29,2.0,3.0,96,-99.99,,,-99.99,0.230000,,2013-03-05 10:11:00,
2013-03-05 02:42:00,35.0,35.0,-100.00,West,261,3.0,5.0,98,-99.99,,,-99.99,0.230000,,2013-03-05 10:42:00,
2013-03-05 02:52:00,35.0,35.0,-100.00,West,261,3.0,5.0,98,-99.99,,,-99.99,0.230000,,2013-03-05 10:52:00,
2013-03-05 03:01:00,35.0,35.0,-100.00,West,261,3.0,5.0,98,-99.99,,,-99.99,0.230000,,2013-03-05 11:01:00,
2013-03-05 03:11:00,35.0,35.0,-100.00,West,261,3.0,5.0,98,-99.99,,,-99.99,0.230000,,2013-03-05 11:11:00,
2013-03-05 03:42:00,35.0,35.0,-100.00,SW,228,0.0,1.0,97,-99.99,,,-99.99,0.230000,,2013-03-05 11:42:00,
2013-03-05 03:52:00,35.0,35.0,-100.00,SW,228,0.0,1.0,97,-99.99,,,-99.99,0.230000,,2013-03-05 11:52:00,
2013-03-05 04:02:00,35.0,35.0,-100.00,SW,228,0.0,1.0,97,-99.99,,,-99.99,0.230000,,2013-03-05 12:02:00,
2013-03-05 04:11:00,35.0,35.0,-100.00,SW,228,0.0,1.0,97,-99.99,,,-99.99,0.230000,,2013-03-05 12:11:00,
2013-03-05 04:32:00,37.0,37.0,-100.00,North,7,0.0,3.0,98,-99.99,,,-99.99,0.350000,,2013-03-05 12:32:00,
2013-03-05 04:42:00,37.0,37.0,-100.00,North,7,0.0,3.0,98,-99.99,,,-99.99,0.350000,,2013-03-05 12:42:00,
2013-03-05 04:52:00,37.0,37.0,-100.00,North,7,0.0,3.0,98,-99.99,,,-99.99,0.350000,,2013-03-05 12:52:00,
2013-03-05 05:01:00,37.0,37.0,-100.00,North,7,0.0,3.0,98,-99.99,,,-99.99,0.350000,,2013-03-05 13:01:00,
2013-03-05 05:11:00,37.0,37.0,-100.00,North,7,0.0,3.0,98,-99.99,,,-99.99,0.350000,,2013-03-05 13:11:00,
2013-03-05 05:42:00,38.0,38.0,-100.00,NE,36,4.0,6.0,97,-99.99,,,-99.99,0.230000,,2013-03-05 13:42:00,
2013-03-05 05:52:00,38.0,38.0,-100.00,NE,36,4.0,6.0,97,-99.99,,,-99.99,0.230000,,2013-03-05 13:52:00,
2013-03-05 06:02:00,38.0,38.0,-100.00,NE,36,4.0,6.0,97,-99.99,,,-99.99,0.230000,,2013-03-05 14:02:00,
2013-03-05 06:11:00,38.0,38.0,-100.00,NE,36,4.0,6.0,97,-99.99,,,-99.99,0.230000,,2013-03-05 14:11:00,
2013-03-05 06:42:00,39.0,38.0,-100.00,West,262,3.0,7.0,96,-99.99,,,0.00,0.230000,,2013-03-05 14:42:00,
2013-03-05 06:52:00,39.0,38.0,-100.00,West,262,3.0,7.0,96,-99.99,,,0.00,0.230000,,2013-03-05 14:52:00,
2013-03-05 07:01:00,39.0,38.0,-100.00,West,262,3.0,7.0,96,-99.99,,,0.00,0.230000,,2013-03-05 15:01:00,
2013-03-05 07:11:00,39.0,38.0,-100.00,West,262,3.0,7.0,96,-99.99,,,0.00,0.230000,,2013-03-05 15:11:00,
2013-03-05 07:42:00,39.0,39.0,-100.00,ENE,69,2.0,4.0,97,-99.99,,,0.00,2.790000,,2013-03-05 15:42:00,
2013-03-05 07:52:00,39.0,39.0,-100.00,ENE,69,2.0,4.0,97,-99.99,,,0.00,2.790000,,2013-03-05 15:52:00,
2013-03-05 08:01:00,39.0,39.0,-100.00,ENE,69,2.0,4.0,97,-99.99,,,0.00,2.790000,,2013-03-05 16:01:00,
2013-03-05 08:11:00,39.0,39.0,-100.00,ENE,69,2.0,4.0,97,-99.99,,,0.00,2.790000,,2013-03-05 16:11:00,
2013-03-05 08:32:00,40.0,39.0,-100.00,ESE,116,3.0,6.0,98,-99.99,,,0.00,25.680000,,2013-03-05 16:32:00,
2013-03-05 08:42:00,40.0,39.0,-100.00,ESE,116,3.0,6.0,98,-99.99,,,0.00,25.680000,,2013-03-05 16:42:00,
2013-03-05 08:52:00,40.0,39.0,-100.00,ESE,116,3.0,6.0,98,-99.99,,,0.00,25.680000,,2013-03-05 16:52:00,
2013-03-05 09:01:00,40.0,39.0,-100.00,ESE,116,3.0,6.0,98,-99.99,,,0.00,25.680000,,2013-03-05 17:01:00,
2013-03-05 09:11:00,40.0,39.0,-100.00,ESE,116,3.0,6.0,98,-99.99,,,0.00,25.680000,,2013-03-05 17:11:00,
2013-03-05 09:41:00,40.0,40.0,-100.00,ESE,116,6.0,11.0,99,-99.99,,,0.01,126.209999,,2013-03-05 17:41:00,
2013-03-05 09:52:00,40.0,40.0,-100.00,ESE,116,6.0,11.0,99,-99.99,,,0.01,126.209999,,2013-03-05 17:52:00,
2013-03-05 10:01:00,40.0,40.0,-100.00,ESE,116,6.0,11.0,99,-99.99,,,0.01,126.209999,,2013-03-05 18:01:00,
2013-03-05 10:11:00,40.0,40.0,-100.00,ESE,116,6.0,11.0,99,-99.99,,,0.01,126.209999,,2013-03-05 18:11:00,
2013-03-05 10:42:00,43.0,42.0,-100.00,ESE,118,5.0,8.0,95,-99.99,,,0.01,132.139999,,2013-03-05 18:42:00,
2013-03-05 10:53:00,43.0,42.0,-100.00,ESE,118,5.0,8.0,95,-99.99,,,0.01,132.139999,,2013-03-05 18:53:00,
2013-03-05 11:01:00,43.0,42.0,-100.00,ESE,118,5.0,8.0,95,-99.99,,,0.01,132.139999,,2013-03-05 19:01:00,
2013-03-05 11:11:00,43.0,42.0,-100.00,ESE,118,5.0,8.0,95,-99.99,,,0.01,132.139999,,2013-03-05 19:11:00,
2013-03-05 11:42:00,45.0,42.0,-100.00,SSE,166,6.0,10.0,88,-99.99,,,0.01,241.039993,,2013-03-05 19:42:00,
2013-03-05 11:52:00,45.0,42.0,-100.00,SSE,166,6.0,10.0,88,-99.99,,,0.01,241.039993,,2013-03-05 19:52:00,
2013-03-05 12:01:00,45.0,42.0,-100.00,SSE,166,6.0,10.0,88,-99.99,,,0.01,241.039993,,2013-03-05 20:01:00,
2013-03-05 12:11:00,45.0,42.0,-100.00,SSE,166,6.0,10.0,88,-99.99,,,0.01,241.039993,,2013-03-05 20:11:00,
2013-03-05 12:41:00,46.0,43.0,-100.00,South,171,8.0,13.0,88,-99.99,,,0.01,328.209991,,2013-03-05 20:41:00,
2013-03-05 12:52:00,46.0,43.0,-100.00,South,171,8.0,13.0,88,-99.99,,,0.01,328.209991,,2013-03-05 20:52:00,
2013-03-05 13:01:00,46.0,43.0,-100.00,South,171,8.0,13.0,88,-99.99,,,0.01,328.209991,,2013-03-05 21:01:00,
2013-03-05 13:11:00,46.0,43.0,-100.00,South,171,8.0,13.0,88,-99.99,,,0.01,328.209991,,2013-03-05 21:11:00,
2013-03-05 13:41:00,47.0,42.0,-100.00,South,189,8.0,16.0,82,-99.99,,,0.01,290.429993,,2013-03-05 21:41:00,
2013-03-05 13:52:00,47.0,42.0,-100.00,South,189,8.0,16.0,82,-99.99,,,0.01,290.429993,,2013-03-05 21:52:00,
2013-03-05 14:01:00,47.0,42.0,-100.00,South,189,8.0,16.0,82,-99.99,,,0.01,290.429993,,2013-03-05 22:01:00,
2013-03-05 14:11:00,47.0,42.0,-100.00,South,189,8.0,16.0,82,-99.99,,,0.01,290.429993,,2013-03-05 22:11:00,
2013-03-05 14:41:00,47.0,43.0,-100.00,South,186,7.0,14.0,83,-99.99,,,0.01,194.320007,,2013-03-05 22:41:00,
2013-03-05 14:52:00,47.0,43.0,-100.00,South,186,7.0,14.0,83,-99.99,,,0.01,194.320007,,2013-03-05 22:52:00,
2013-03-05 15:01:00,47.0,43.0,-100.00,South,186,7.0,14.0,83,-99.99,,,0.01,194.320007,,2013-03-05 23:01:00,
2013-03-05 15:11:00,47.0,43.0,-100.00,South,186,7.0,14.0,83,-99.99,,,0.01,194.320007,,2013-03-05 23:11:00,
2013-03-05 15:41:00,47.0,44.0,-100.00,SSW,196,5.0,9.0,87,-99.99,,,0.01,96.699997,,2013-03-05 23:41:00,
2013-03-05 15:52:00,47.0,44.0,-100.00,SSW,196,5.0,9.0,87,-99.99,,,0.01,96.699997,,2013-03-05 23:52:00,
2013-03-05 16:01:00,47.0,44.0,-100.00,SSW,196,5.0,9.0,87,-99.99,,,0.01,96.699997,,2013-03-06 00:01:00,
2013-03-05 16:11:00,47.0,44.0,-100.00,SSW,196,5.0,9.0,87,-99.99,,,0.01,96.699997,,2013-03-06 00:11:00,
2013-03-05 16:32:00,46.0,44.0,-100.00,South,175,3.0,5.0,93,-99.99,,,0.01,38.349998,,2013-03-06 00:32:00,
2013-03-05 16:41:00,46.0,44.0,-100.00,South,175,3.0,5.0,93,-99.99,,,0.01,38.349998,,2013-03-06 00:41:00,
2013-03-05 16:52:00,46.0,44.0,-100.00,South,175,3.0,5.0,93,-99.99,,,0.01,38.349998,,2013-03-06 00:52:00,
2013-03-05 17:01:00,46.0,44.0,-100.00,South,175,3.0,5.0,93,-99.99,,,0.01,38.349998,,2013-03-06 01:01:00,
2013-03-05 17:11:00,46.0,44.0,-100.00,South,175,3.0,5.0,93,-99.99,,,0.01,38.349998,,2013-03-06 01:11:00,
2013-03-05 17:41:00,46.0,45.0,-100.00,SE,144,4.0,6.0,95,-99.99,,,0.01,19.990000,,2013-03-06 01:41:00,
2013-03-05 17:52:00,46.0,45.0,-100.00,SE,144,4.0,6.0,95,-99.99,,,0.01,19.990000,,2013-03-06 01:52:00,
2013-03-05 18:01:00,46.0,45.0,-100.00,SE,144,4.0,6.0,95,-99.99,,,0.01,19.990000,,2013-03-06 02:01:00,
2013-03-05 18:11:00,46.0,45.0,-100.00,SE,144,4.0,6.0,95,-99.99,,,0.01,19.990000,,2013-03-06 02:11:00,
2013-03-05 18:31:00,45.0,44.0,-100.00,ESE,120,3.0,5.0,96,-99.99,,,0.01,0.810000,,2013-03-06 02:31:00,
2013-03-05 18:41:00,45.0,44.0,-100.00,ESE,120,3.0,5.0,96,-99.99,,,0.01,0.810000,,2013-03-06 02:41:00,
2013-03-05 18:52:00,45.0,44.0,-100.00,ESE,120,3.0,5.0,96,-99.99,,,0.01,0.810000,,2013-03-06 02:52:00,
2013-03-05 19:01:00,45.0,44.0,-100.00,ESE,120,3.0,5.0,96,-99.99,,,0.01,0.810000,,2013-03-06 03:01:00,
2013-03-05 19:11:00,45.0,44.0,-100.00,ESE,120,3.0,5.0,96,-99.99,,,0.01,0.810000,,2013-03-06 03:11:00,
2013-03-05 19:31:00,45.0,44.0,-100.00,NNE,19,2.0,3.0,97,-99.99,,,0.01,0.350000,,2013-03-06 03:31:00,
2013-03-05 19:41:00,45.0,44.0,-100.00,NNE,19,2.0,3.0,97,-99.99,,,0.01,0.350000,,2013-03-06 03:41:00,
2013-03-05 19:52:00,45.0,44.0,-100.00,NNE,19,2.0,3.0,97,-99.99,,,0.01,0.350000,,2013-03-06 03:52:00,
2013-03-05 20:01:00,45.0,44.0,-100.00,NNE,19,2.0,3.0,97,-99.99,,,0.01,0.350000,,2013-03-06 04:01:00,
2013-03-05 20:11:00,45.0,44.0,-100.00,NNE,19,2.0,3.0,97,-99.99,,,0.01,0.350000,,2013-03-06 04:11:00,
2013-03-05 20:32:00,45.0,45.0,-100.00,NE,46,3.0,5.0,99,-99.99,,,0.01,0.350000,,2013-03-06 04:32:00,
2013-03-05 20:41:00,45.0,45.0,-100.00,NE,46,3.0,5.0,99,-99.99,,,0.01,0.350000,,2013-03-06 04:41:00,
2013-03-05 20:52:00,45.0,45.0,-100.00,NE,46,3.0,5.0,99,-99.99,,,0.01,0.350000,,2013-03-06 04:52:00,
2013-03-05 21:01:00,45.0,45.0,-100.00,NE,46,3.0,5.0,99,-99.99,,,0.01,0.350000,,2013-03-06 05:01:00,
2013-03-05 21:11:00,45.0,45.0,-100.00,NE,46,3.0,5.0,99,-99.99,,,0.01,0.350000,,2013-03-06 05:11:00,
2013-03-05 21:42:00,44.0,44.0,-100.00,NNE,21,3.0,6.0,99,-99.99,,,0.02,0.350000,,2013-03-06 05:42:00,
2013-03-05 21:52:00,44.0,44.0,-100.00,NNE,21,3.0,6.0,99,-99.99,,,0.02,0.350000,,2013-03-06 05:52:00,
2013-03-05 22:01:00,44.0,44.0,-100.00,NNE,21,3.0,6.0,99,-99.99,,,0.02,0.350000,,2013-03-06 06:01:00,
2013-03-05 22:11:00,44.0,44.0,-100.00,NNE,21,3.0,6.0,99,-99.99,,,0.02,0.350000,,2013-03-06 06:11:00,
2013-03-05 22:31:00,44.0,44.0,-100.00,North,10,5.0,8.0,99,-99.99,,,0.02,0.350000,,2013-03-06 06:31:00,
2013-03-05 22:42:00,44.0,44.0,-100.00,North,10,5.0,8.0,99,-99.99,,,0.02,0.350000,,2013-03-06 06:42:00,
2013-03-05 22:52:00,44.0,44.0,-100.00,North,10,5.0,8.0,99,-99.99,,,0.02,0.350000,,2013-03-06 06:52:00,
2013-03-05 23:01:00,44.0,44.0,-100.00,North,10,5.0,8.0,99,-99.99,,,0.02,0.350000,,2013-03-06 07:01:00,
2013-03-05 23:11:00,44.0,44.0,-100.00,North,10,5.0,8.0,99,-99.99,,,0.02,0.350000,,2013-03-06 07:11:00,
2013-03-05 23:42:00,44.0,44.0,-100.00,NNE,31,4.0,7.0,99,-99.99,,,0.02,0.350000,,2013-03-06 07:42:00,
2013-03-05 23:52:00,44.0,44.0,-100.00,NNE,31,4.0,7.0,99,-99.99,,,0.02,0.350000,,2013-03-06 07:52:00,